Time;durP1;ratioP1;P1;durP2;ratioP2;P2;SDS_P1;SDS_P2;PMS_P1;PMS_P2;Temp;Humidity;BMP_temperature;BMP_pressure;BME280_temperature;BME280_humidity;BME280_pressure;Samples;Min_cycle;Max_cycle;Signal;HPM_P1;HPM_P2
2024/02/08 00:00:29;;;;;;;5.77;3.70;;;9.60;99.90;;;;;;4972467;28;20831;-76
2024/02/08 00:03:15;;;;;;;4.30;3.77;;;9.60;99.90;;;;;;4984458;28;20802;-76
2024/02/08 00:06:02;;;;;;;5.13;4.10;;;9.60;99.90;;;;;;4979048;28;20428;-76
2024/02/08 00:08:53;;;;;;;4.80;4.03;;;9.50;99.90;;;;;;4974801;28;20426;-75
2024/02/08 00:11:38;;;;;;;5.60;3.80;;;9.50;99.90;;;;;;4980170;28;20407;-76
2024/02/08 00:14:24;;;;;;;5.93;4.07;;;9.50;99.90;;;;;;4982700;28;20451;-74
2024/02/08 00:17:10;;;;;;;5.03;4.03;;;9.50;99.90;;;;;;4981256;28;20433;-75
2024/02/08 00:19:55;;;;;;;5.47;3.87;;;9.50;99.90;;;;;;4968309;28;20434;-75
2024/02/08 00:22:43;;;;;;;6.13;4.90;;;9.50;99.90;;;;;;4970276;28;20541;-75
2024/02/08 00:25:28;;;;;;;9.63;5.37;;;9.50;99.90;;;;;;4973077;28;20478;-75
2024/02/08 00:28:14;;;;;;;5.73;4.23;;;9.50;99.90;;;;;;4975533;28;20453;-75
2024/02/08 00:31:00;;;;;;;7.10;4.83;;;9.50;99.90;;;;;;4973059;28;20443;-76
2024/02/08 00:33:46;;;;;;;6.60;4.37;;;9.50;99.90;;;;;;4976018;28;20441;-75
2024/02/08 00:36:32;;;;;;;6.40;4.67;;;9.50;99.90;;;;;;4977073;28;20795;-74
2024/02/08 00:39:19;;;;;;;6.20;4.60;;;9.50;99.90;;;;;;4976579;28;20449;-75
2024/02/08 00:42:05;;;;;;;5.60;4.50;;;9.50;99.90;;;;;;4970426;28;20477;-75
2024/02/08 00:44:51;;;;;;;4.87;4.33;;;9.50;99.90;;;;;;4978458;28;20489;-75
2024/02/08 00:47:37;;;;;;;6.20;4.20;;;9.60;99.90;;;;;;4974088;28;20489;-75
2024/02/08 00:50:24;;;;;;;5.47;4.87;;;9.60;99.90;;;;;;4972342;28;21077;-75
2024/02/08 00:53:09;;;;;;;4.27;3.70;;;9.50;99.90;;;;;;4978194;28;20433;-75
2024/02/08 00:55:56;;;;;;;4.23;3.60;;;9.60;99.90;;;;;;4985316;28;20517;-75
2024/02/08 00:58:42;;;;;;;5.27;4.20;;;9.60;99.90;;;;;;4974605;28;20457;-76
2024/02/08 01:01:30;;;;;;;4.40;3.80;;;9.60;99.90;;;;;;4965025;28;20471;-76
2024/02/08 01:04:21;;;;;;;4.93;3.87;;;9.60;99.90;;;;;;4980400;28;20465;-75
2024/02/08 01:07:06;;;;;;;4.60;3.80;;;9.60;99.90;;;;;;4978775;28;20449;-75
2024/02/08 01:09:52;;;;;;;5.33;3.73;;;9.70;99.90;;;;;;4981508;28;20963;-75
2024/02/08 01:12:38;;;;;;;3.93;3.53;;;9.60;99.90;;;;;;4979407;28;20440;-76
2024/02/08 01:15:24;;;;;;;6.30;4.77;;;9.70;99.90;;;;;;4980350;28;20840;-76
2024/02/08 01:18:10;;;;;;;4.20;3.80;;;9.70;99.90;;;;;;4976051;28;20449;-75
2024/02/08 01:20:56;;;;;;;4.70;3.50;;;9.80;99.90;;;;;;4976981;28;21086;-75
2024/02/08 01:23:46;;;;;;;4.33;3.63;;;9.80;99.90;;;;;;4972362;28;20533;-75
2024/02/08 01:26:32;;;;;;;6.60;4.30;;;9.70;99.90;;;;;;4979445;28;20984;-75
2024/02/08 01:29:24;;;;;;;6.77;4.87;;;9.70;99.90;;;;;;4976224;28;20550;-75
2024/02/08 01:32:11;;;;;;;4.13;3.33;;;9.70;99.90;;;;;;4976219;28;20516;-75
2024/02/08 01:34:58;;;;;;;6.87;4.97;;;9.70;99.90;;;;;;4978364;28;20424;-75
2024/02/08 01:37:44;;;;;;;4.20;3.77;;;9.80;99.90;;;;;;4974681;28;20462;-75
2024/02/08 01:40:30;;;;;;;6.97;4.50;;;9.80;99.90;;;;;;4979138;28;20992;-75
2024/02/08 01:43:16;;;;;;;5.60;4.10;;;9.70;99.90;;;;;;4978529;28;20465;-75
2024/02/08 01:46:03;;;;;;;4.87;3.70;;;9.70;99.90;;;;;;4995793;23;21056;-72
2024/02/08 01:48:49;;;;;;;5.27;4.50;;;9.70;99.90;;;;;;4972307;28;20502;-72
2024/02/08 01:51:37;;;;;;;5.23;3.93;;;9.70;99.90;;;;;;4972970;28;20454;-72
2024/02/08 01:54:22;;;;;;;5.30;3.77;;;9.70;99.90;;;;;;4973735;28;20450;-72
2024/02/08 01:57:08;;;;;;;5.53;3.70;;;9.60;99.90;;;;;;4973572;28;20419;-72
2024/02/08 01:59:54;;;;;;;7.00;4.40;;;9.60;99.90;;;;;;4973026;28;20454;-72
2024/02/08 02:02:43;;;;;;;5.87;4.30;;;9.70;99.90;;;;;;4971459;28;20627;-72
2024/02/08 02:05:29;;;;;;;6.40;4.13;;;9.70;99.90;;;;;;4969831;28;20481;-72
2024/02/08 02:08:18;;;;;;;3.67;3.17;;;9.70;99.90;;;;;;4971955;28;20435;-72
2024/02/08 02:11:16;;;;;;;4.40;4.00;;;9.80;99.90;;;;;;4972002;28;20444;-72
2024/02/08 02:14:05;;;;;;;4.43;4.00;;;9.80;99.90;;;;;;4982385;28;20866;-72
2024/02/08 02:16:51;;;;;;;4.27;3.40;;;9.80;99.90;;;;;;4972703;28;20408;-72
2024/02/08 02:19:39;;;;;;;4.30;3.17;;;9.80;99.90;;;;;;4974284;28;20453;-72
2024/02/08 02:22:28;;;;;;;6.60;3.47;;;9.90;99.90;;;;;;4974031;28;20532;-72
2024/02/08 02:25:14;;;;;;;3.03;2.63;;;9.90;99.90;;;;;;4973200;28;20472;-72
2024/02/08 02:28:03;;;;;;;5.77;2.60;;;9.90;99.90;;;;;;4974322;28;20453;-72
2024/02/08 02:30:50;;;;;;;4.40;2.60;;;9.90;99.90;;;;;;4977287;28;20532;-72
2024/02/08 02:33:37;;;;;;;5.33;3.27;;;9.90;99.90;;;;;;4974344;28;20456;-72
2024/02/08 02:36:23;;;;;;;4.20;3.40;;;9.90;99.90;;;;;;4970571;28;20470;-72
2024/02/08 02:39:09;;;;;;;5.10;3.63;;;9.90;99.90;;;;;;4971847;28;20429;-72
2024/02/08 02:41:56;;;;;;;5.40;3.87;;;9.90;99.90;;;;;;4976604;28;20565;-72
2024/02/08 02:44:42;;;;;;;3.73;3.23;;;9.90;99.90;;;;;;4974922;28;20493;-72
2024/02/08 02:47:28;;;;;;;4.70;3.13;;;9.90;99.90;;;;;;4973771;28;20983;-73
2024/02/08 02:50:16;;;;;;;5.97;3.13;;;9.90;99.90;;;;;;4972879;28;20433;-72
2024/02/08 02:53:02;;;;;;;8.60;3.30;;;9.90;99.90;;;;;;4973723;28;20445;-72
2024/02/08 02:55:48;;;;;;;5.63;3.57;;;9.90;99.90;;;;;;4974137;28;20478;-72
2024/02/08 02:58:35;;;;;;;4.40;3.73;;;10.00;99.90;;;;;;4969641;28;20441;-72
2024/02/08 03:01:21;;;;;;;3.67;3.37;;;10.00;99.90;;;;;;4971383;28;20553;-72
2024/02/08 03:04:07;;;;;;;4.80;3.70;;;10.00;99.90;;;;;;4975872;28;20430;-72
2024/02/08 03:06:53;;;;;;;6.40;4.00;;;10.00;99.90;;;;;;4976268;28;20456;-72
2024/02/08 03:09:38;;;;;;;5.10;3.37;;;10.00;99.90;;;;;;4973725;28;20560;-72
2024/02/08 03:12:26;;;;;;;6.57;3.50;;;10.00;99.90;;;;;;4972557;28;21003;-72
2024/02/08 03:15:12;;;;;;;4.07;3.23;;;10.00;99.90;;;;;;4970268;28;20498;-72
2024/02/08 03:18:00;;;;;;;3.97;3.33;;;10.00;99.90;;;;;;4973513;28;20523;-72
2024/02/08 03:20:46;;;;;;;3.80;3.00;;;10.00;99.90;;;;;;4970919;28;20496;-72
2024/02/08 03:23:33;;;;;;;5.17;2.83;;;10.00;99.90;;;;;;4973003;28;20961;-72
2024/02/08 03:26:18;;;;;;;4.77;3.03;;;10.10;99.90;;;;;;4976673;28;20456;-72
2024/02/08 03:29:05;;;;;;;5.27;3.60;;;10.00;99.90;;;;;;4973081;28;20428;-71
2024/02/08 03:31:52;;;;;;;4.37;3.43;;;10.10;99.90;;;;;;4972074;28;20430;-72
2024/02/08 03:34:37;;;;;;;7.00;3.87;;;10.00;99.90;;;;;;4972185;28;20570;-72
2024/02/08 03:37:24;;;;;;;9.63;4.20;;;10.00;99.90;;;;;;4972644;28;20440;-72
2024/02/08 03:40:11;;;;;;;4.00;3.30;;;10.00;99.90;;;;;;4969923;28;20577;-72
2024/02/08 03:42:56;;;;;;;4.23;3.10;;;10.00;99.90;;;;;;4971718;28;20868;-72
2024/02/08 03:45:46;;;;;;;4.50;4.10;;;10.10;99.90;;;;;;4969703;28;20819;-72
2024/02/08 03:48:33;;;;;;;5.37;4.03;;;10.00;99.90;;;;;;4972731;28;20509;-72
2024/02/08 03:51:19;;;;;;;4.37;3.50;;;10.00;99.90;;;;;;4972649;28;20784;-72
2024/02/08 03:54:08;;;;;;;4.00;3.57;;;10.10;99.90;;;;;;4975681;28;20851;-72
2024/02/08 03:56:54;;;;;;;6.10;3.43;;;10.10;99.90;;;;;;4971231;28;20450;-72
2024/02/08 03:59:40;;;;;;;5.03;3.40;;;10.10;99.90;;;;;;4969265;28;20430;-72
2024/02/08 04:02:27;;;;;;;4.70;3.13;;;10.10;99.90;;;;;;4969767;28;20565;-72
2024/02/08 04:05:26;;;;;;;5.13;3.20;;;10.10;99.90;;;;;;4972450;28;20448;-72
2024/02/08 04:08:52;;;;;;;4.10;3.10;;;10.10;99.90;;;;;;4966277;28;20445;-72
2024/02/08 04:54:16;;;;;;;4.20;3.23;;;10.10;99.90;;;;;;4973502;28;20425;-72
2024/02/08 04:57:03;;;;;;;3.63;3.20;;;10.10;99.90;;;;;;4972103;28;20489;-72
2024/02/08 04:59:48;;;;;;;3.20;2.90;;;10.10;99.90;;;;;;4967332;28;20475;-72
2024/02/08 05:02:34;;;;;;;3.43;3.13;;;10.10;99.90;;;;;;4971746;28;20610;-72
2024/02/08 05:05:21;;;;;;;3.03;2.77;;;10.10;99.90;;;;;;4968444;28;20989;-72
2024/02/08 05:08:07;;;;;;;9.80;3.10;;;10.10;99.90;;;;;;4972172;28;20934;-72
2024/02/08 05:10:53;;;;;;;3.10;2.80;;;10.10;99.90;;;;;;4972670;28;20849;-72
2024/02/08 05:13:42;;;;;;;5.83;3.17;;;10.10;99.90;;;;;;4971219;28;20431;-72
2024/02/08 05:16:31;;;;;;;3.40;3.03;;;10.10;99.90;;;;;;4971464;28;20455;-72
2024/02/08 05:19:16;;;;;;;3.13;2.57;;;10.10;99.90;;;;;;4966508;28;20824;-72
2024/02/08 05:22:04;;;;;;;4.17;2.90;;;10.10;99.90;;;;;;4973124;28;20539;-72
2024/02/08 05:24:49;;;;;;;3.87;3.20;;;10.10;99.90;;;;;;4973410;28;20604;-72
2024/02/08 05:27:35;;;;;;;2.90;2.63;;;10.10;99.90;;;;;;4972913;28;20592;-72
2024/02/08 05:30:22;;;;;;;3.80;3.30;;;10.10;99.90;;;;;;4975452;28;20452;-72
2024/02/08 05:33:08;;;;;;;5.30;3.03;;;10.10;99.90;;;;;;4972376;28;20441;-72
2024/02/08 05:35:56;;;;;;;4.90;3.83;;;10.20;99.90;;;;;;4966257;28;20573;-72
2024/02/08 05:38:45;;;;;;;6.93;3.23;;;10.10;99.90;;;;;;4969587;28;20796;-72
2024/02/08 05:41:33;;;;;;;3.90;2.90;;;10.20;99.90;;;;;;4970914;28;20941;-72
2024/02/08 05:44:20;;;;;;;3.33;2.70;;;10.10;99.90;;;;;;4965439;28;20482;-72
2024/02/08 05:47:07;;;;;;;3.23;2.93;;;10.10;99.90;;;;;;4970287;28;21078;-72
2024/02/08 05:49:53;;;;;;;4.07;2.90;;;10.20;99.90;;;;;;4973756;28;20493;-72
2024/02/08 05:52:38;;;;;;;4.70;2.60;;;10.20;99.90;;;;;;4973941;28;20447;-72
2024/02/08 05:55:25;;;;;;;3.43;3.03;;;10.10;99.90;;;;;;4971393;28;20539;-72
2024/02/08 05:58:16;;;;;;;2.90;2.40;;;10.10;99.90;;;;;;4976343;28;20469;-72
2024/02/08 06:01:05;;;;;;;2.93;2.50;;;10.10;99.90;;;;;;4974023;28;20458;-72
2024/02/08 06:03:56;;;;;;;3.00;2.63;;;10.10;99.90;;;;;;4973907;28;20482;-72
2024/02/08 06:06:52;;;;;;;3.63;2.97;;;10.10;99.90;;;;;;4971089;28;20664;-72
2024/02/08 06:09:47;;;;;;;4.07;3.03;;;10.10;99.90;;;;;;4973908;28;21044;-72
2024/02/08 06:12:42;;;;;;;2.90;2.60;;;10.10;99.90;;;;;;4973673;28;20493;-72
2024/02/08 06:15:33;;;;;;;4.40;2.27;;;10.20;99.90;;;;;;4973176;28;20475;-72
2024/02/08 06:18:25;;;;;;;3.40;2.50;;;10.10;99.90;;;;;;4968361;28;20519;-72
2024/02/08 06:21:13;;;;;;;3.87;3.00;;;10.10;99.90;;;;;;4968786;28;20868;-71
2024/02/08 06:24:14;;;;;;;3.20;2.50;;;10.10;99.90;;;;;;4975351;28;20633;-71
2024/02/08 06:27:01;;;;;;;3.47;2.20;;;10.20;99.90;;;;;;4976311;28;20941;-72
2024/02/08 06:29:49;;;;;;;2.97;2.50;;;10.20;99.90;;;;;;4976602;28;20456;-72
2024/02/08 06:32:43;;;;;;;2.10;1.87;;;10.20;99.90;;;;;;4981374;28;20487;-71
2024/02/08 06:35:35;;;;;;;3.40;2.33;;;10.20;99.90;;;;;;4978873;28;21116;-72
2024/02/08 06:38:40;;;;;;;4.50;2.73;;;10.20;99.90;;;;;;4977792;28;20424;-72
2024/02/08 06:41:51;;;;;;;5.40;2.37;;;10.20;99.90;;;;;;4970665;28;20847;-72
2024/02/08 06:44:52;;;;;;;2.03;1.83;;;10.30;99.90;;;;;;4977766;28;20967;-70
2024/02/08 07:40:01;;;;;;;2.70;2.13;;;10.20;99.90;;;;;;4977518;28;20541;-71
2024/02/08 07:42:51;;;;;;;3.30;2.90;;;10.20;99.90;;;;;;4972762;28;21290;-71
2024/02/08 07:45:37;;;;;;;2.90;2.10;;;10.20;99.90;;;;;;5008917;23;20537;-73
2024/02/08 07:51:28;;;;;;;4.97;3.57;;;10.10;99.90;;;;;;5020977;28;20532;-74
2024/02/08 07:54:20;;;;;;;4.63;2.33;;;10.20;99.90;;;;;;5024650;28;20425;-76
2024/02/08 07:57:11;;;;;;;4.00;2.83;;;10.20;99.90;;;;;;5029988;28;20458;-73
2024/02/08 07:59:59;;;;;;;4.40;2.67;;;10.20;99.90;;;;;;5028709;28;20399;-74
2024/02/08 08:02:47;;;;;;;3.33;2.60;;;10.30;99.90;;;;;;5021546;28;20475;-75
2024/02/08 08:05:33;;;;;;;3.90;3.50;;;10.30;99.90;;;;;;5029413;28;20573;-75
2024/02/08 08:08:25;;;;;;;10.70;5.87;;;10.30;99.90;;;;;;5018395;28;20971;-75
2024/02/08 08:11:15;;;;;;;10.37;5.30;;;10.20;99.90;;;;;;5022301;28;20814;-76
2024/02/08 08:17:31;;;;;;;9.80;4.77;;;10.30;99.90;;;;;;5025292;28;20443;-76
2024/02/08 08:20:46;;;;;;;6.33;3.40;;;10.30;99.90;;;;;;5019555;28;20432;-76
2024/02/08 08:23:25;;;;;;;3.20;2.53;;;10.40;99.90;;;;;;5018370;28;21109;-76
2024/02/08 08:26:25;;;;;;;2.60;2.40;;;10.40;99.90;;;;;;5022659;28;20479;-75
2024/02/08 08:29:16;;;;;;;2.90;2.43;;;10.40;99.90;;;;;;5018478;28;21038;-76
2024/02/08 08:32:53;;;;;;;3.23;2.37;;;10.40;99.90;;;;;;5028118;28;20454;-75
2024/02/08 08:35:37;;;;;;;3.60;2.33;;;10.40;99.90;;;;;;5023494;28;20456;-74
2024/02/08 08:38:44;;;;;;;7.80;2.70;;;10.40;99.90;;;;;;5028774;28;20396;-75
2024/02/08 08:41:31;;;;;;;5.30;3.50;;;10.50;99.90;;;;;;5029494;28;20431;-75
2024/02/08 08:44:18;;;;;;;2.80;2.07;;;10.40;99.90;;;;;;5028677;28;20490;-76
2024/02/08 08:47:04;;;;;;;9.10;4.00;;;10.40;99.90;;;;;;5028173;28;21056;-76
2024/02/08 08:49:51;;;;;;;3.60;2.57;;;10.40;99.90;;;;;;5027901;28;20428;-75
2024/02/08 08:52:47;;;;;;;2.23;2.03;;;10.40;99.90;;;;;;5011577;28;20430;-76
2024/02/08 08:55:39;;;;;;;2.40;1.77;;;10.40;99.90;;;;;;5022323;28;20454;-77
2024/02/08 08:58:27;;;;;;;2.53;2.23;;;10.40;99.90;;;;;;5024628;28;20443;-75
2024/02/08 09:01:15;;;;;;;2.43;2.23;;;10.40;99.90;;;;;;5021621;28;20482;-76
2024/02/08 09:04:10;;;;;;;2.83;2.30;;;10.40;99.90;;;;;;5020690;28;20470;-76
2024/02/08 09:06:55;;;;;;;2.87;2.30;;;10.50;99.90;;;;;;5028858;28;20452;-75
2024/02/08 09:10:00;;;;;;;7.00;2.17;;;10.50;99.90;;;;;;5017850;28;20947;-76
2024/02/08 09:12:58;;;;;;;2.70;2.20;;;10.50;99.90;;;;;;5028234;28;20431;-76
2024/02/08 09:15:55;;;;;;;2.50;2.07;;;10.50;99.90;;;;;;5025003;28;20456;-76
2024/02/08 09:21:40;;;;;;;3.07;2.30;;;10.40;99.90;;;;;;5028559;28;20405;-75
2024/02/08 09:24:26;;;;;;;3.40;2.57;;;10.50;99.90;;;;;;5021735;28;20522;-76
2024/02/08 09:27:16;;;;;;;6.57;3.13;;;10.50;99.90;;;;;;5024091;28;20430;-76
2024/02/08 09:30:09;;;;;;;3.80;2.37;;;10.50;99.90;;;;;;5033153;28;20435;-75
2024/02/08 09:32:58;;;;;;;7.77;4.63;;;10.60;99.90;;;;;;5030760;28;20405;-74
2024/02/08 09:35:43;;;;;;;3.30;2.67;;;10.50;99.90;;;;;;5031021;28;20567;-73
2024/02/08 09:38:42;;;;;;;3.00;2.07;;;10.60;99.90;;;;;;5033786;28;20509;-76
2024/02/08 09:41:28;;;;;;;4.80;2.30;;;10.60;99.90;;;;;;5033726;28;20431;-75
2024/02/08 09:44:14;;;;;;;4.70;1.73;;;10.60;99.90;;;;;;5026392;28;20831;-75
2024/02/08 09:47:06;;;;;;;2.60;1.93;;;10.60;99.90;;;;;;5033220;28;20466;-75
2024/02/08 09:50:00;;;;;;;8.00;3.40;;;10.60;99.90;;;;;;5033205;28;20412;-75
2024/02/08 09:52:56;;;;;;;2.60;1.70;;;10.60;99.90;;;;;;5032929;28;20450;-75
2024/02/08 09:55:42;;;;;;;3.67;2.10;;;10.70;99.90;;;;;;5028050;28;20481;-74
2024/02/08 09:58:34;;;;;;;2.90;1.47;;;10.60;99.90;;;;;;5032125;28;20439;-75
2024/02/08 10:01:24;;;;;;;2.10;1.30;;;10.60;99.90;;;;;;5022234;28;20435;-74
2024/02/08 10:04:25;;;;;;;5.33;3.10;;;10.60;99.90;;;;;;5033477;28;20472;-75
2024/02/08 10:07:16;;;;;;;3.90;1.90;;;10.60;99.90;;;;;;5029156;28;20477;-74
2024/02/08 10:10:15;;;;;;;2.30;1.97;;;10.70;99.90;;;;;;5033106;28;20438;-75
2024/02/08 10:13:05;;;;;;;2.83;2.27;;;10.70;99.90;;;;;;5033265;28;20422;-75
2024/02/08 10:15:55;;;;;;;1.93;1.50;;;10.70;99.90;;;;;;5018671;28;20844;-75
2024/02/08 10:18:41;;;;;;;3.50;1.87;;;10.80;99.90;;;;;;5002600;28;20452;-75
2024/02/08 10:21:29;;;;;;;3.13;1.70;;;10.80;99.90;;;;;;5003813;28;20849;-76
2024/02/08 10:24:26;;;;;;;3.10;2.20;;;10.80;99.90;;;;;;5009592;28;20483;-75
2024/02/08 10:27:19;;;;;;;2.67;1.60;;;10.80;99.90;;;;;;5004674;28;20423;-75
2024/02/08 10:30:08;;;;;;;3.10;1.53;;;10.80;99.90;;;;;;5023487;28;20482;-74
2024/02/08 10:32:54;;;;;;;2.53;1.83;;;10.80;99.90;;;;;;5015482;28;20443;-74
2024/02/08 10:35:40;;;;;;;3.03;1.80;;;10.80;99.90;;;;;;5012110;28;20443;-75
2024/02/08 10:38:32;;;;;;;3.00;1.20;;;10.80;99.90;;;;;;5019367;28;21060;-74
2024/02/08 10:41:19;;;;;;;2.60;1.47;;;10.70;99.90;;;;;;5013487;28;20789;-75
2024/02/08 10:44:05;;;;;;;2.77;1.07;;;10.70;99.90;;;;;;5024658;28;21080;-75
2024/02/08 10:46:55;;;;;;;2.10;1.13;;;10.80;99.90;;;;;;5015645;28;20610;-75
2024/02/08 10:49:46;;;;;;;1.60;1.20;;;10.80;99.90;;;;;;5021943;28;20801;-75
2024/02/08 10:52:33;;;;;;;3.00;1.00;;;10.80;99.90;;;;;;5010369;28;20437;-75
2024/02/08 10:55:30;;;;;;;1.87;1.33;;;10.80;99.90;;;;;;5018352;28;20583;-75
2024/02/08 10:58:26;;;;;;;1.60;1.23;;;10.70;99.90;;;;;;5006145;28;20473;-75
2024/02/08 11:01:32;;;;;;;1.40;0.87;;;10.70;99.90;;;;;;5006818;28;20427;-75
2024/02/08 11:04:21;;;;;;;1.40;1.00;;;10.80;99.90;;;;;;5025592;28;21212;-75
2024/02/08 11:07:17;;;;;;;1.43;0.87;;;10.70;99.90;;;;;;5014212;28;20431;-75
2024/02/08 11:10:03;;;;;;;1.73;0.90;;;10.70;99.90;;;;;;5021182;28;20431;-75
2024/02/08 11:12:55;;;;;;;1.57;0.87;;;10.70;99.90;;;;;;5014461;28;20403;-75
2024/02/08 11:15:48;;;;;;;1.70;0.93;;;10.80;99.90;;;;;;5014107;28;21028;-74
2024/02/08 11:18:35;;;;;;;3.00;1.23;;;10.70;99.90;;;;;;5009210;28;20447;-75
2024/02/08 11:21:42;;;;;;;2.00;1.10;;;10.80;99.90;;;;;;5008244;28;20428;-74
2024/02/08 11:24:38;;;;;;;1.60;1.20;;;10.80;99.90;;;;;;5012133;28;20509;-74
2024/02/08 11:27:27;;;;;;;2.60;1.10;;;10.90;99.90;;;;;;5008765;28;20432;-76
2024/02/08 11:30:19;;;;;;;1.77;1.30;;;10.90;99.90;;;;;;5013821;28;20431;-76
2024/02/08 11:33:05;;;;;;;1.50;1.10;;;10.90;99.90;;;;;;5013546;28;20436;-74
2024/02/08 11:36:11;;;;;;;1.50;1.03;;;10.90;99.90;;;;;;5014707;28;20452;-74
2024/02/08 11:38:58;;;;;;;1.90;1.53;;;10.80;99.90;;;;;;5015368;28;20971;-75
2024/02/08 11:41:44;;;;;;;2.53;1.33;;;10.80;99.90;;;;;;5016481;28;20442;-74
2024/02/08 11:44:35;;;;;;;2.97;1.27;;;10.80;99.90;;;;;;5018265;28;20483;-75
2024/02/08 11:47:23;;;;;;;2.40;1.30;;;10.90;99.90;;;;;;5007716;28;20427;-74
2024/02/08 11:50:21;;;;;;;4.53;1.20;;;10.90;99.90;;;;;;5020932;28;20432;-74
2024/02/08 11:53:06;;;;;;;5.37;1.20;;;10.90;99.90;;;;;;5014070;28;20439;-75
2024/02/08 11:56:08;;;;;;;3.83;1.53;;;10.90;99.90;;;;;;5016382;28;20812;-74
2024/02/08 11:58:54;;;;;;;1.50;1.00;;;10.90;99.90;;;;;;5011406;28;20440;-74
2024/02/08 12:01:43;;;;;;;1.80;1.23;;;10.90;99.90;;;;;;5020921;28;20499;-74
2024/02/08 12:04:34;;;;;;;2.50;1.70;;;10.90;99.90;;;;;;5015558;28;20475;-75
2024/02/08 12:07:21;;;;;;;4.30;1.80;;;10.90;99.90;;;;;;5031744;28;20420;-74
2024/02/08 12:10:09;;;;;;;2.00;1.40;;;10.90;99.90;;;;;;5021406;28;20531;-74
2024/02/08 12:12:55;;;;;;;2.00;1.30;;;10.90;99.90;;;;;;5013337;28;20439;-75
2024/02/08 12:15:44;;;;;;;2.83;1.53;;;10.90;99.90;;;;;;5014918;28;20580;-74
2024/02/08 12:18:30;;;;;;;1.80;1.30;;;10.90;99.90;;;;;;5008279;28;20482;-74
2024/02/08 12:21:17;;;;;;;2.03;1.20;;;10.90;99.90;;;;;;5007332;28;20493;-74
2024/02/08 12:24:03;;;;;;;1.90;1.30;;;10.90;99.90;;;;;;5023866;28;20577;-74
2024/02/08 12:26:53;;;;;;;1.67;1.23;;;11.00;99.90;;;;;;5015462;28;20539;-75
2024/02/08 12:29:44;;;;;;;1.60;1.10;;;11.00;99.90;;;;;;5016341;28;20809;-75
2024/02/08 12:32:33;;;;;;;3.30;1.27;;;11.00;99.90;;;;;;5007109;28;21500;-74
2024/02/08 12:35:21;;;;;;;1.77;1.20;;;11.00;99.90;;;;;;5007930;28;20994;-74
2024/02/08 12:38:11;;;;;;;2.87;1.30;;;11.00;99.90;;;;;;5016939;28;20874;-74
2024/02/08 12:40:57;;;;;;;1.70;1.10;;;11.00;99.90;;;;;;5016529;28;20439;-74
2024/02/08 12:43:46;;;;;;;1.80;1.30;;;11.00;99.90;;;;;;5014560;28;20479;-73
2024/02/08 12:46:32;;;;;;;2.50;1.23;;;11.00;99.90;;;;;;5021918;28;20465;-74
2024/02/08 12:49:18;;;;;;;1.60;1.30;;;11.10;99.90;;;;;;5007372;28;20443;-74
2024/02/08 12:52:09;;;;;;;3.80;1.70;;;11.10;99.90;;;;;;5014263;28;20426;-74
2024/02/08 12:54:56;;;;;;;2.10;1.50;;;11.10;99.90;;;;;;5013322;28;20437;-74
2024/02/08 12:57:41;;;;;;;2.80;1.33;;;11.00;99.90;;;;;;5020931;28;20431;-74
2024/02/08 13:00:27;;;;;;;1.87;1.60;;;11.10;99.90;;;;;;5014242;28;20509;-75
2024/02/08 13:03:16;;;;;;;2.40;1.60;;;11.10;99.90;;;;;;5013398;28;20431;-74
2024/02/08 13:06:03;;;;;;;4.07;2.10;;;11.10;99.90;;;;;;5015700;28;20564;-74
2024/02/08 13:08:49;;;;;;;3.43;1.57;;;11.10;99.90;;;;;;5013699;28;20575;-74
2024/02/08 13:11:36;;;;;;;4.43;2.07;;;11.10;99.90;;;;;;5010253;28;20871;-74
2024/02/08 13:14:23;;;;;;;3.03;2.00;;;11.10;99.90;;;;;;5014603;28;20415;-74
2024/02/08 13:17:09;;;;;;;4.03;2.50;;;11.10;99.90;;;;;;5025925;28;20946;-74
2024/02/08 13:19:56;;;;;;;2.80;2.40;;;11.20;99.90;;;;;;5016264;28;20536;-74
2024/02/08 13:22:44;;;;;;;3.63;1.90;;;11.20;99.90;;;;;;5014321;28;20606;-74
2024/02/08 13:25:30;;;;;;;4.80;3.40;;;11.20;99.90;;;;;;5018121;28;20481;-74
2024/02/08 13:28:18;;;;;;;6.30;2.50;;;11.20;99.90;;;;;;5014942;28;20791;-74
2024/02/08 13:31:05;;;;;;;4.17;2.20;;;11.20;99.90;;;;;;5016272;28;20736;-74
2024/02/08 13:33:52;;;;;;;7.23;2.80;;;11.30;99.90;;;;;;5022204;28;21059;-74
2024/02/08 13:36:43;;;;;;;7.47;3.10;;;11.30;99.90;;;;;;5017158;28;20839;-74
2024/02/08 13:39:32;;;;;;;13.63;3.30;;;11.30;99.90;;;;;;5024481;28;20442;-74
2024/02/08 13:42:19;;;;;;;16.20;3.50;;;11.40;99.90;;;;;;5016917;28;20834;-74
2024/02/08 13:45:07;;;;;;;11.60;3.60;;;11.40;99.90;;;;;;5014742;28;20482;-76
2024/02/08 13:47:55;;;;;;;6.90;3.07;;;11.50;99.90;;;;;;5023080;28;20408;-76
2024/02/08 13:50:43;;;;;;;7.53;3.30;;;11.40;99.90;;;;;;5012051;28;20579;-76
2024/02/08 13:53:28;;;;;;;8.20;2.80;;;11.40;99.90;;;;;;5011651;28;21060;-76
2024/02/08 13:56:14;;;;;;;10.73;3.10;;;11.40;99.90;;;;;;5015490;28;20493;-76
2024/02/08 13:59:01;;;;;;;15.13;4.00;;;11.50;99.90;;;;;;5013499;28;20426;-76
2024/02/08 14:01:48;;;;;;;18.03;3.97;;;11.60;99.90;;;;;;5015934;28;20803;-75
2024/02/08 14:04:33;;;;;;;9.27;3.00;;;11.60;99.90;;;;;;5010682;28;20472;-76
2024/02/08 14:07:20;;;;;;;11.83;3.67;;;11.60;99.90;;;;;;5014780;28;20959;-76
2024/02/08 14:10:08;;;;;;;19.40;4.03;;;11.60;99.90;;;;;;5020301;28;20430;-76
2024/02/08 14:12:59;;;;;;;14.47;4.40;;;11.60;99.90;;;;;;5020424;28;20459;-76
2024/02/08 14:15:47;;;;;;;13.70;4.00;;;11.60;99.90;;;;;;5012809;28;20442;-76
2024/02/08 14:18:35;;;;;;;12.90;3.50;;;11.60;99.90;;;;;;5022911;28;20436;-76
2024/02/08 14:21:24;;;;;;;19.10;4.53;;;11.70;99.90;;;;;;5018211;28;20446;-76
2024/02/08 14:24:14;;;;;;;12.97;3.37;;;11.70;99.90;;;;;;5023357;28;20481;-76
2024/02/08 14:26:59;;;;;;;16.70;3.90;;;11.70;99.90;;;;;;5021046;28;20463;-75
2024/02/08 14:29:46;;;;;;;19.43;3.77;;;11.70;99.90;;;;;;5018410;28;20409;-77
2024/02/08 14:32:33;;;;;;;6.83;3.37;;;11.70;99.90;;;;;;5019165;28;20454;-76
2024/02/08 14:35:20;;;;;;;16.50;3.30;;;11.70;99.90;;;;;;5018103;28;20452;-77
2024/02/08 14:38:07;;;;;;;7.53;4.10;;;11.70;99.90;;;;;;5018495;28;20482;-76
2024/02/08 14:40:53;;;;;;;18.20;4.03;;;11.70;99.90;;;;;;5020216;28;20411;-76
2024/02/08 14:43:46;;;;;;;13.80;3.90;;;11.70;99.90;;;;;;5015194;28;20454;-74
2024/02/08 14:46:32;;;;;;;17.40;3.47;;;11.70;99.90;;;;;;5018533;28;20492;-75
2024/02/08 14:49:23;;;;;;;16.17;4.70;;;11.70;99.90;;;;;;5020829;28;20982;-75
2024/02/08 14:52:14;;;;;;;20.40;5.40;;;11.70;99.90;;;;;;5016433;28;20526;-76
2024/02/08 14:55:09;;;;;;;11.30;3.40;;;11.70;99.90;;;;;;5031782;28;20447;-76
2024/02/08 14:57:58;;;;;;;27.07;6.20;;;11.70;99.90;;;;;;5019342;28;20433;-75
2024/02/08 15:03:49;;;;;;;16.73;4.37;;;11.80;99.90;;;;;;5020339;28;20451;-76
2024/02/08 15:06:39;;;;;;;14.70;4.67;;;11.80;99.90;;;;;;5010797;28;20665;-76
2024/02/08 15:09:47;;;;;;;20.00;4.70;;;11.80;99.90;;;;;;5016422;28;20432;-75
2024/02/08 15:12:38;;;;;;;24.40;5.00;;;11.80;99.90;;;;;;5018323;28;20472;-76
2024/02/08 15:15:30;;;;;;;23.27;4.50;;;11.80;99.90;;;;;;5021730;28;20439;-76
2024/02/08 15:18:19;;;;;;;14.37;5.10;;;11.80;99.90;;;;;;5018968;28;20432;-76
2024/02/08 15:21:09;;;;;;;24.73;7.03;;;11.80;99.90;;;;;;5025398;28;20595;-76
2024/02/08 15:27:07;;;;;;;21.47;5.27;;;11.90;99.90;;;;;;5010544;28;20475;-76
2024/02/08 15:29:52;;;;;;;19.53;4.00;;;11.90;99.90;;;;;;5019994;28;20404;-76
2024/02/08 15:32:46;;;;;;;20.10;5.00;;;11.90;99.90;;;;;;5014947;28;20922;-77
2024/02/08 15:35:35;;;;;;;14.33;4.33;;;11.90;99.90;;;;;;5019308;28;20444;-77
2024/02/08 15:38:35;;;;;;;16.37;4.50;;;11.90;99.90;;;;;;5020342;28;20474;-76
2024/02/08 15:41:28;;;;;;;16.03;3.87;;;11.90;99.90;;;;;;5014944;28;20439;-76
2024/02/08 15:44:19;;;;;;;24.33;5.00;;;11.90;99.90;;;;;;5024940;28;20478;-77
2024/02/08 15:47:11;;;;;;;23.60;5.10;;;11.90;99.90;;;;;;5025972;28;20941;-77
2024/02/08 15:49:58;;;;;;;25.47;5.33;;;11.90;99.90;;;;;;5019898;28;20841;-76
2024/02/08 15:52:45;;;;;;;23.73;5.23;;;11.90;99.90;;;;;;5015717;28;20450;-76
2024/02/08 15:55:38;;;;;;;18.30;6.17;;;11.90;99.90;;;;;;5017308;28;20455;-75
2024/02/08 15:58:28;;;;;;;12.57;3.50;;;11.90;99.90;;;;;;5022176;28;20429;-74
2024/02/08 16:01:48;;;;;;;15.73;4.90;;;11.90;99.90;;;;;;5024230;28;20428;-74
2024/02/08 16:04:44;;;;;;;19.53;4.10;;;11.90;99.90;;;;;;5023011;28;20475;-77
2024/02/08 16:07:32;;;;;;;24.00;4.40;;;11.90;99.90;;;;;;5014230;28;20439;-76
2024/02/08 16:10:19;;;;;;;23.47;5.20;;;12.00;99.90;;;;;;5015032;28;20501;-74
2024/02/08 16:13:05;;;;;;;19.53;4.63;;;11.90;99.90;;;;;;5019671;28;20449;-76
2024/02/08 16:15:55;;;;;;;15.83;3.97;;;12.00;99.90;;;;;;5022836;28;20456;-76
2024/02/08 16:18:49;;;;;;;19.47;5.20;;;12.00;99.90;;;;;;5020286;28;20907;-76
2024/02/08 16:21:35;;;;;;;19.23;4.67;;;11.90;99.90;;;;;;5014779;28;20424;-76
2024/02/08 16:24:20;;;;;;;18.30;4.67;;;11.90;99.90;;;;;;5021202;28;20482;-76
2024/02/08 16:27:13;;;;;;;23.97;4.87;;;11.90;99.90;;;;;;5014312;28;20555;-76
2024/02/08 16:30:07;;;;;;;17.33;4.93;;;11.90;99.90;;;;;;5025155;28;20480;-76
2024/02/08 16:32:55;;;;;;;18.33;5.37;;;11.90;99.90;;;;;;5018439;28;20447;-76